sensor_id;sensor_type;location;lat;lon;timestamp;temperature;humidity
76789;DHT22;65740;52.464;13.446;2023-02-15T00:01:54;18.90;45.70
76789;DHT22;65740;52.464;13.446;2023-02-15T00:04:23;18.90;45.70
76789;DHT22;65740;52.464;13.446;2023-02-15T00:06:49;18.90;45.70
76789;DHT22;65740;52.464;13.446;2023-02-15T00:09:15;18.90;45.70
76789;DHT22;65740;52.464;13.446;2023-02-15T00:11:41;18.90;45.80
76789;DHT22;65740;52.464;13.446;2023-02-15T00:14:18;18.90;45.80
76789;DHT22;65740;52.464;13.446;2023-02-15T00:16:44;18.80;45.60
76789;DHT22;65740;52.464;13.446;2023-02-15T00:19:11;18.90;45.80
76789;DHT22;65740;52.464;13.446;2023-02-15T00:21:39;18.80;45.60
76789;DHT22;65740;52.464;13.446;2023-02-15T00:24:07;18.80;45.60
76789;DHT22;65740;52.464;13.446;2023-02-15T00:26:33;18.80;45.60
76789;DHT22;65740;52.464;13.446;2023-02-15T00:28:59;18.80;45.60
76789;DHT22;65740;52.464;13.446;2023-02-15T00:31:26;18.80;45.60
76789;DHT22;65740;52.464;13.446;2023-02-15T00:33:52;18.90;45.70
76789;DHT22;65740;52.464;13.446;2023-02-15T00:36:17;18.90;45.70
76789;DHT22;65740;52.464;13.446;2023-02-15T00:38:43;18.90;45.70
76789;DHT22;65740;52.464;13.446;2023-02-15T00:41:09;18.80;45.60
76789;DHT22;65740;52.464;13.446;2023-02-15T00:43:35;18.80;45.60
76789;DHT22;65740;52.464;13.446;2023-02-15T00:46:02;18.80;45.60
76789;DHT22;65740;52.464;13.446;2023-02-15T00:48:28;18.80;45.60
76789;DHT22;65740;52.464;13.446;2023-02-15T00:50:57;18.80;45.60
76789;DHT22;65740;52.464;13.446;2023-02-15T00:53:24;18.80;45.60
76789;DHT22;65740;52.464;13.446;2023-02-15T00:55:50;18.80;46.20
76789;DHT22;65740;52.464;13.446;2023-02-15T00:58:15;18.80;45.60
76789;DHT22;65740;52.464;13.446;2023-02-15T01:00:43;18.80;45.60
76789;DHT22;65740;52.464;13.446;2023-02-15T01:03:09;18.80;45.60
76789;DHT22;65740;52.464;13.446;2023-02-15T01:05:35;18.80;45.60
76789;DHT22;65740;52.464;13.446;2023-02-15T01:08:01;18.80;45.60
76789;DHT22;65740;52.464;13.446;2023-02-15T01:10:27;18.80;45.60
76789;DHT22;65740;52.464;13.446;2023-02-15T01:12:54;18.80;45.60
76789;DHT22;65740;52.464;13.446;2023-02-15T01:15:20;18.80;45.60
76789;DHT22;65740;52.464;13.446;2023-02-15T01:17:46;18.70;45.50
76789;DHT22;65740;52.464;13.446;2023-02-15T01:20:17;18.80;45.60
76789;DHT22;65740;52.464;13.446;2023-02-15T01:22:43;18.70;45.50
76789;DHT22;65740;52.464;13.446;2023-02-15T01:25:09;18.70;45.50
76789;DHT22;65740;52.464;13.446;2023-02-15T01:27:35;18.70;45.50
76789;DHT22;65740;52.464;13.446;2023-02-15T01:30:00;18.70;45.30
76789;DHT22;65740;52.464;13.446;2023-02-15T01:32:26;18.80;45.30
76789;DHT22;65740;52.464;13.446;2023-02-15T01:34:52;18.70;45.80
76789;DHT22;65740;52.464;13.446;2023-02-15T01:37:18;18.70;45.20
76789;DHT22;65740;52.464;13.446;2023-02-15T01:39:44;18.70;45.10
76789;DHT22;65740;52.464;13.446;2023-02-15T01:42:11;18.70;45.00
76789;DHT22;65740;52.464;13.446;2023-02-15T01:44:53;18.70;44.90
76789;DHT22;65740;52.464;13.446;2023-02-15T01:50:10;18.70;44.90
76789;DHT22;65740;52.464;13.446;2023-02-15T01:52:40;18.70;45.00
76789;DHT22;65740;52.464;13.446;2023-02-15T01:55:08;18.70;44.70
76789;DHT22;65740;52.464;13.446;2023-02-15T01:57:34;18.70;44.80
76789;DHT22;65740;52.464;13.446;2023-02-15T02:00:02;18.70;44.70
76789;DHT22;65740;52.464;13.446;2023-02-15T02:02:28;18.70;44.60
76789;DHT22;65740;52.464;13.446;2023-02-15T02:05:00;18.70;44.60
76789;DHT22;65740;52.464;13.446;2023-02-15T02:07:31;18.60;45.10
76789;DHT22;65740;52.464;13.446;2023-02-15T02:09:57;18.70;44.50
76789;DHT22;65740;52.464;13.446;2023-02-15T02:12:23;18.60;44.30
76789;DHT22;65740;52.464;13.446;2023-02-15T02:14:50;18.60;44.30
76789;DHT22;65740;52.464;13.446;2023-02-15T02:17:45;18.70;44.30
76789;DHT22;65740;52.464;13.446;2023-02-15T02:20:37;18.70;44.30
76789;DHT22;65740;52.464;13.446;2023-02-15T02:23:16;18.60;44.30
76789;DHT22;65740;52.464;13.446;2023-02-15T02:31:05;18.60;44.10
76789;DHT22;65740;52.464;13.446;2023-02-15T02:34:30;18.60;44.10
76789;DHT22;65740;52.464;13.446;2023-02-15T02:42:29;18.60;43.90
76789;DHT22;65740;52.464;13.446;2023-02-15T02:47:42;18.60;43.90
76789;DHT22;65740;52.464;13.446;2023-02-15T02:50:14;18.60;43.80
76789;DHT22;65740;52.464;13.446;2023-02-15T02:52:51;18.60;43.80
76789;DHT22;65740;52.464;13.446;2023-02-15T02:55:37;18.60;43.80
76789;DHT22;65740;52.464;13.446;2023-02-15T02:58:13;18.50;43.60
76789;DHT22;65740;52.464;13.446;2023-02-15T03:01:02;18.60;43.70
76789;DHT22;65740;52.464;13.446;2023-02-15T03:06:00;18.50;43.50
76789;DHT22;65740;52.464;13.446;2023-02-15T03:09:11;18.50;43.40
76789;DHT22;65740;52.464;13.446;2023-02-15T03:11:17;18.50;43.50
76789;DHT22;65740;52.464;13.446;2023-02-15T03:13:45;18.50;44.10
76789;DHT22;65740;52.464;13.446;2023-02-15T03:16:13;18.50;43.40
76789;DHT22;65740;52.464;13.446;2023-02-15T03:21:40;18.50;43.30
76789;DHT22;65740;52.464;13.446;2023-02-15T03:24:10;18.50;43.20
76789;DHT22;65740;52.464;13.446;2023-02-15T03:26:39;18.50;43.20
76789;DHT22;65740;52.464;13.446;2023-02-15T03:29:06;18.50;43.20
76789;DHT22;65740;52.464;13.446;2023-02-15T03:31:36;18.50;43.10
76789;DHT22;65740;52.464;13.446;2023-02-15T03:34:05;18.50;43.00
76789;DHT22;65740;52.464;13.446;2023-02-15T03:36:44;18.50;43.00
76789;DHT22;65740;52.464;13.446;2023-02-15T03:39:25;18.50;42.90
76789;DHT22;65740;52.464;13.446;2023-02-15T03:44:31;18.50;42.80
76789;DHT22;65740;52.464;13.446;2023-02-15T03:47:11;18.50;42.70
76789;DHT22;65740;52.464;13.446;2023-02-15T03:52:09;18.50;42.70
76789;DHT22;65740;52.464;13.446;2023-02-15T03:54:37;18.50;42.70
76789;DHT22;65740;52.464;13.446;2023-02-15T03:57:13;18.50;42.70
76789;DHT22;65740;52.464;13.446;2023-02-15T03:59:58;18.50;42.60
76789;DHT22;65740;52.464;13.446;2023-02-15T04:05:23;18.50;42.60
76789;DHT22;65740;52.464;13.446;2023-02-15T04:07:49;18.50;42.60
76789;DHT22;65740;52.464;13.446;2023-02-15T04:10:14;18.50;42.50
76789;DHT22;65740;52.464;13.446;2023-02-15T04:12:59;18.50;42.50
76789;DHT22;65740;52.464;13.446;2023-02-15T04:15:24;18.50;42.50
76789;DHT22;65740;52.464;13.446;2023-02-15T04:18:08;18.50;42.40
76789;DHT22;65740;52.464;13.446;2023-02-15T04:20:34;18.50;42.40
76789;DHT22;65740;52.464;13.446;2023-02-15T04:23:18;18.40;42.30
76789;DHT22;65740;52.464;13.446;2023-02-15T04:26:05;18.40;42.30
76789;DHT22;65740;52.464;13.446;2023-02-15T04:28:31;18.40;42.20
76789;DHT22;65740;52.464;13.446;2023-02-15T04:30:57;18.40;42.20
76789;DHT22;65740;52.464;13.446;2023-02-15T04:33:23;18.40;42.20
76789;DHT22;65740;52.464;13.446;2023-02-15T04:35:48;18.40;42.10
76789;DHT22;65740;52.464;13.446;2023-02-15T04:38:14;18.40;42.20
76789;DHT22;65740;52.464;13.446;2023-02-15T04:40:39;18.40;42.00
76789;DHT22;65740;52.464;13.446;2023-02-15T04:43:05;18.40;42.10
76789;DHT22;65740;52.464;13.446;2023-02-15T04:45:31;18.40;42.10
76789;DHT22;65740;52.464;13.446;2023-02-15T04:47:56;18.40;42.10
76789;DHT22;65740;52.464;13.446;2023-02-15T04:50:22;18.40;42.70
76789;DHT22;65740;52.464;13.446;2023-02-15T04:52:47;18.40;42.00
76789;DHT22;65740;52.464;13.446;2023-02-15T04:55:13;18.40;42.10
76789;DHT22;65740;52.464;13.446;2023-02-15T04:57:39;18.40;42.00
76789;DHT22;65740;52.464;13.446;2023-02-15T05:00:05;18.40;42.60
76789;DHT22;65740;52.464;13.446;2023-02-15T05:02:31;18.40;41.80
76789;DHT22;65740;52.464;13.446;2023-02-15T05:04:57;18.40;41.90
76789;DHT22;65740;52.464;13.446;2023-02-15T05:07:22;18.40;41.70
76789;DHT22;65740;52.464;13.446;2023-02-15T05:09:48;18.40;41.70
76789;DHT22;65740;52.464;13.446;2023-02-15T05:12:14;18.40;41.70
76789;DHT22;65740;52.464;13.446;2023-02-15T05:14:39;18.40;41.80
76789;DHT22;65740;52.464;13.446;2023-02-15T05:17:05;18.40;41.80
76789;DHT22;65740;52.464;13.446;2023-02-15T05:19:31;18.40;41.60
76789;DHT22;65740;52.464;13.446;2023-02-15T05:21:56;18.30;41.50
76789;DHT22;65740;52.464;13.446;2023-02-15T05:24:22;18.40;41.70
76789;DHT22;65740;52.464;13.446;2023-02-15T05:27:07;18.30;41.50
76789;DHT22;65740;52.464;13.446;2023-02-15T05:29:51;18.30;41.40
76789;DHT22;65740;52.464;13.446;2023-02-15T05:32:17;18.40;41.50
76789;DHT22;65740;52.464;13.446;2023-02-15T05:34:42;18.40;41.60
76789;DHT22;65740;52.464;13.446;2023-02-15T05:37:08;18.30;41.30
76789;DHT22;65740;52.464;13.446;2023-02-15T05:39:34;18.30;41.40
76789;DHT22;65740;52.464;13.446;2023-02-15T05:42:00;18.30;42.00
76789;DHT22;65740;52.464;13.446;2023-02-15T05:44:26;18.30;41.30
76789;DHT22;65740;52.464;13.446;2023-02-15T05:46:51;18.30;41.30
76789;DHT22;65740;52.464;13.446;2023-02-15T05:49:17;18.30;41.30
76789;DHT22;65740;52.464;13.446;2023-02-15T05:51:42;18.30;41.20
76789;DHT22;65740;52.464;13.446;2023-02-15T05:54:08;18.30;41.30
76789;DHT22;65740;52.464;13.446;2023-02-15T05:56:33;18.30;41.20
76789;DHT22;65740;52.464;13.446;2023-02-15T05:58:59;18.20;41.20
76789;DHT22;65740;52.464;13.446;2023-02-15T06:01:25;18.20;41.10
76789;DHT22;65740;52.464;13.446;2023-02-15T06:03:50;18.30;41.10
76789;DHT22;65740;52.464;13.446;2023-02-15T06:06:17;18.30;41.20
76789;DHT22;65740;52.464;13.446;2023-02-15T06:08:42;18.30;41.20
76789;DHT22;65740;52.464;13.446;2023-02-15T06:11:08;18.30;41.10
76789;DHT22;65740;52.464;13.446;2023-02-15T06:13:34;18.30;41.20
76789;DHT22;65740;52.464;13.446;2023-02-15T06:16:00;18.30;41.10
76789;DHT22;65740;52.464;13.446;2023-02-15T06:18:26;18.30;41.10
76789;DHT22;65740;52.464;13.446;2023-02-15T06:20:52;18.30;41.10
76789;DHT22;65740;52.464;13.446;2023-02-15T06:23:18;18.30;40.90
76789;DHT22;65740;52.464;13.446;2023-02-15T06:25:45;18.30;41.00
76789;DHT22;65740;52.464;13.446;2023-02-15T06:28:11;18.30;41.10
76789;DHT22;65740;52.464;13.446;2023-02-15T06:30:36;18.20;41.80
76789;DHT22;65740;52.464;13.446;2023-02-15T06:33:02;18.20;40.90
76789;DHT22;65740;52.464;13.446;2023-02-15T06:35:28;18.20;40.80
76789;DHT22;65740;52.464;13.446;2023-02-15T06:37:53;18.20;40.90
76789;DHT22;65740;52.464;13.446;2023-02-15T06:40:19;18.30;40.80
76789;DHT22;65740;52.464;13.446;2023-02-15T06:42:45;18.30;40.80
76789;DHT22;65740;52.464;13.446;2023-02-15T06:45:11;18.30;40.70
76789;DHT22;65740;52.464;13.446;2023-02-15T06:47:37;18.20;40.70
76789;DHT22;65740;52.464;13.446;2023-02-15T06:50:04;18.20;40.70
76789;DHT22;65740;52.464;13.446;2023-02-15T06:52:30;18.20;40.60
76789;DHT22;65740;52.464;13.446;2023-02-15T06:54:56;18.20;40.60
76789;DHT22;65740;52.464;13.446;2023-02-15T06:57:22;18.20;40.60
76789;DHT22;65740;52.464;13.446;2023-02-15T06:59:47;18.20;40.60
76789;DHT22;65740;52.464;13.446;2023-02-15T07:02:13;18.30;40.70
76789;DHT22;65740;52.464;13.446;2023-02-15T07:04:39;18.30;41.30
76789;DHT22;65740;52.464;13.446;2023-02-15T07:07:08;18.30;40.80
76789;DHT22;65740;52.464;13.446;2023-02-15T07:09:34;18.30;40.90
76789;DHT22;65740;52.464;13.446;2023-02-15T07:12:00;18.30;40.80
76789;DHT22;65740;52.464;13.446;2023-02-15T07:14:44;18.30;40.80
76789;DHT22;65740;52.464;13.446;2023-02-15T07:17:10;18.30;40.70
76789;DHT22;65740;52.464;13.446;2023-02-15T07:19:35;18.30;40.70
76789;DHT22;65740;52.464;13.446;2023-02-15T07:22:01;18.30;40.80
76789;DHT22;65740;52.464;13.446;2023-02-15T07:24:27;18.30;40.70
76789;DHT22;65740;52.464;13.446;2023-02-15T07:26:52;18.30;40.70
76789;DHT22;65740;52.464;13.446;2023-02-15T07:29:18;18.30;40.70
76789;DHT22;65740;52.464;13.446;2023-02-15T07:31:44;18.30;40.80
76789;DHT22;65740;52.464;13.446;2023-02-15T07:34:10;18.30;40.70
76789;DHT22;65740;52.464;13.446;2023-02-15T07:36:36;18.30;40.70
76789;DHT22;65740;52.464;13.446;2023-02-15T07:39:02;18.30;40.70
76789;DHT22;65740;52.464;13.446;2023-02-15T07:41:28;18.30;40.70
76789;DHT22;65740;52.464;13.446;2023-02-15T07:43:53;18.30;40.70
76789;DHT22;65740;52.464;13.446;2023-02-15T07:46:19;18.30;40.50
76789;DHT22;65740;52.464;13.446;2023-02-15T07:48:46;18.30;40.40
76789;DHT22;65740;52.464;13.446;2023-02-15T07:51:12;18.30;40.50
76789;DHT22;65740;52.464;13.446;2023-02-15T07:53:39;18.30;40.60
76789;DHT22;65740;52.464;13.446;2023-02-15T07:56:07;18.30;40.60
76789;DHT22;65740;52.464;13.446;2023-02-15T07:58:34;18.30;40.60
76789;DHT22;65740;52.464;13.446;2023-02-15T08:01:25;18.30;40.50
76789;DHT22;65740;52.464;13.446;2023-02-15T08:03:52;18.30;40.60
76789;DHT22;65740;52.464;13.446;2023-02-15T08:06:17;18.30;40.60
76789;DHT22;65740;52.464;13.446;2023-02-15T08:08:43;18.30;40.70
76789;DHT22;65740;52.464;13.446;2023-02-15T08:19:10;18.30;41.40
76789;DHT22;65740;52.464;13.446;2023-02-15T08:21:39;18.30;40.60
76789;DHT22;65740;52.464;13.446;2023-02-15T08:24:06;18.20;40.00
76789;DHT22;65740;52.464;13.446;2023-02-15T08:26:33;18.30;40.50
76789;DHT22;65740;52.464;13.446;2023-02-15T08:28:59;18.30;40.60
76789;DHT22;65740;52.464;13.446;2023-02-15T08:31:26;18.30;40.70
76789;DHT22;65740;52.464;13.446;2023-02-15T08:33:53;18.30;40.70
76789;DHT22;65740;52.464;13.446;2023-02-15T08:36:21;18.30;40.70
76789;DHT22;65740;52.464;13.446;2023-02-15T08:38:47;18.30;40.70
76789;DHT22;65740;52.464;13.446;2023-02-15T08:41:24;18.30;40.70
76789;DHT22;65740;52.464;13.446;2023-02-15T08:43:53;18.30;40.70
76789;DHT22;65740;52.464;13.446;2023-02-15T08:46:21;18.30;40.80
76789;DHT22;65740;52.464;13.446;2023-02-15T08:48:47;18.30;40.80
76789;DHT22;65740;52.464;13.446;2023-02-15T08:51:18;18.30;40.90
76789;DHT22;65740;52.464;13.446;2023-02-15T08:53:46;18.30;40.90
76789;DHT22;65740;52.464;13.446;2023-02-15T08:56:15;18.40;41.00
76789;DHT22;65740;52.464;13.446;2023-02-15T08:58:41;18.30;40.90
76789;DHT22;65740;52.464;13.446;2023-02-15T09:01:12;18.40;41.00
76789;DHT22;65740;52.464;13.446;2023-02-15T09:03:38;18.40;41.20
76789;DHT22;65740;52.464;13.446;2023-02-15T09:06:04;18.40;41.30
76789;DHT22;65740;52.464;13.446;2023-02-15T09:08:30;18.40;41.20
76789;DHT22;65740;52.464;13.446;2023-02-15T09:11:20;18.40;41.20
76789;DHT22;65740;52.464;13.446;2023-02-15T09:13:53;18.40;41.20
76789;DHT22;65740;52.464;13.446;2023-02-15T09:16:20;18.40;41.30
76789;DHT22;65740;52.464;13.446;2023-02-15T09:18:47;18.40;41.40
76789;DHT22;65740;52.464;13.446;2023-02-15T09:21:18;18.40;41.40
76789;DHT22;65740;52.464;13.446;2023-02-15T09:23:46;18.40;41.50
76789;DHT22;65740;52.464;13.446;2023-02-15T09:26:15;18.50;41.70
76789;DHT22;65740;52.464;13.446;2023-02-15T09:28:41;18.50;41.90
76789;DHT22;65740;52.464;13.446;2023-02-15T09:31:18;18.50;41.70
76789;DHT22;65740;52.464;13.446;2023-02-15T09:33:45;18.50;41.80
76789;DHT22;65740;52.464;13.446;2023-02-15T09:36:21;18.50;41.70
76789;DHT22;65740;52.464;13.446;2023-02-15T09:38:52;18.50;41.70
76789;DHT22;65740;52.464;13.446;2023-02-15T09:48:07;18.50;42.00
76789;DHT22;65740;52.464;13.446;2023-02-15T09:50:33;18.50;42.00
76789;DHT22;65740;52.464;13.446;2023-02-15T09:56:02;18.50;42.10
76789;DHT22;65740;52.464;13.446;2023-02-15T10:09:48;18.70;42.40
76789;DHT22;65740;52.464;13.446;2023-02-15T10:12:31;18.70;42.40
76789;DHT22;65740;52.464;13.446;2023-02-15T10:17:52;18.80;42.60
76789;DHT22;65740;52.464;13.446;2023-02-15T10:26:34;18.90;42.80
76789;DHT22;65740;52.464;13.446;2023-02-15T10:29:36;18.90;42.80
76789;DHT22;65740;52.464;13.446;2023-02-15T10:32:10;18.90;42.70
76789;DHT22;65740;52.464;13.446;2023-02-15T10:34:50;18.90;42.90
76789;DHT22;65740;52.464;13.446;2023-02-15T10:48:30;19.10;43.20
76789;DHT22;65740;52.464;13.446;2023-02-15T10:50:59;19.10;43.20
76789;DHT22;65740;52.464;13.446;2023-02-15T11:07:08;19.30;43.30
76789;DHT22;65740;52.464;13.446;2023-02-15T11:09:41;19.30;43.30
76789;DHT22;65740;52.464;13.446;2023-02-15T11:12:12;19.40;43.60
76789;DHT22;65740;52.464;13.446;2023-02-15T11:14:54;19.40;43.50
76789;DHT22;65740;52.464;13.446;2023-02-15T11:17:25;19.40;43.70
76789;DHT22;65740;52.464;13.446;2023-02-15T11:20:05;19.50;43.80
76789;DHT22;65740;52.464;13.446;2023-02-15T11:22:33;19.50;43.90
76789;DHT22;65740;52.464;13.446;2023-02-15T11:25:01;19.50;44.50
76789;DHT22;65740;52.464;13.446;2023-02-15T11:27:31;19.60;44.70
76789;DHT22;65740;52.464;13.446;2023-02-15T11:30:14;19.60;43.90
76789;DHT22;65740;52.464;13.446;2023-02-15T11:32:44;19.60;44.50
76789;DHT22;65740;52.464;13.446;2023-02-15T11:37:41;19.70;45.50
76789;DHT22;65740;52.464;13.446;2023-02-15T11:40:35;19.70;45.90
76789;DHT22;65740;52.464;13.446;2023-02-15T11:43:14;19.70;46.40
76789;DHT22;65740;52.464;13.446;2023-02-15T11:45:43;19.80;46.20
76789;DHT22;65740;52.464;13.446;2023-02-15T11:48:12;19.80;46.20
76789;DHT22;65740;52.464;13.446;2023-02-15T11:50:38;19.80;46.50
76789;DHT22;65740;52.464;13.446;2023-02-15T11:53:14;19.80;46.50
76789;DHT22;65740;52.464;13.446;2023-02-15T11:55:45;19.90;46.20
76789;DHT22;65740;52.464;13.446;2023-02-15T11:58:27;19.90;46.10
76789;DHT22;65740;52.464;13.446;2023-02-15T12:01:33;19.90;46.20
76789;DHT22;65740;52.464;13.446;2023-02-15T12:04:29;19.90;46.60
76789;DHT22;65740;52.464;13.446;2023-02-15T12:07:00;19.90;46.60
76789;DHT22;65740;52.464;13.446;2023-02-15T12:09:30;19.90;46.60
76789;DHT22;65740;52.464;13.446;2023-02-15T12:14:53;19.90;46.60
76789;DHT22;65740;52.464;13.446;2023-02-15T12:17:23;19.90;46.60
76789;DHT22;65740;52.464;13.446;2023-02-15T12:19:50;19.90;46.60
76789;DHT22;65740;52.464;13.446;2023-02-15T12:22:35;19.90;46.60
76789;DHT22;65740;52.464;13.446;2023-02-15T12:25:20;20.00;46.70
76789;DHT22;65740;52.464;13.446;2023-02-15T12:27:47;20.00;46.20
76789;DHT22;65740;52.464;13.446;2023-02-15T12:30:22;20.00;46.60
76789;DHT22;65740;52.464;13.446;2023-02-15T12:32:54;20.00;46.70
76789;DHT22;65740;52.464;13.446;2023-02-15T12:35:28;20.00;46.70
76789;DHT22;65740;52.464;13.446;2023-02-15T12:40:37;20.00;46.70
76789;DHT22;65740;52.464;13.446;2023-02-15T12:43:04;20.00;46.70
76789;DHT22;65740;52.464;13.446;2023-02-15T12:45:37;20.00;46.70
76789;DHT22;65740;52.464;13.446;2023-02-15T12:50:38;20.00;46.70
76789;DHT22;65740;52.464;13.446;2023-02-15T12:53:20;20.00;46.70
76789;DHT22;65740;52.464;13.446;2023-02-15T12:55:52;20.10;46.70
76789;DHT22;65740;52.464;13.446;2023-02-15T13:00:46;20.10;46.70
76789;DHT22;65740;52.464;13.446;2023-02-15T13:03:20;20.10;46.70
76789;DHT22;65740;52.464;13.446;2023-02-15T13:05:51;20.20;46.80
76789;DHT22;65740;52.464;13.446;2023-02-15T13:08:21;20.20;46.80
76789;DHT22;65740;52.464;13.446;2023-02-15T13:11:04;20.20;46.90
76789;DHT22;65740;52.464;13.446;2023-02-15T13:13:33;20.20;46.80
76789;DHT22;65740;52.464;13.446;2023-02-15T13:16:14;20.30;46.90
76789;DHT22;65740;52.464;13.446;2023-02-15T13:18:45;20.30;47.10
76789;DHT22;65740;52.464;13.446;2023-02-15T13:21:16;20.30;46.90
76789;DHT22;65740;52.464;13.446;2023-02-15T13:23:51;20.30;47.00
76789;DHT22;65740;52.464;13.446;2023-02-15T13:26:21;20.30;47.50
76789;DHT22;65740;52.464;13.446;2023-02-15T13:28:52;20.30;47.20
76789;DHT22;65740;52.464;13.446;2023-02-15T13:31:22;20.30;46.90
76789;DHT22;65740;52.464;13.446;2023-02-15T13:34:12;20.40;47.00
76789;DHT22;65740;52.464;13.446;2023-02-15T13:47:45;20.50;47.10
76789;DHT22;65740;52.464;13.446;2023-02-15T13:50:47;20.50;47.10
76789;DHT22;65740;52.464;13.446;2023-02-15T13:56:28;20.50;47.20
76789;DHT22;65740;52.464;13.446;2023-02-15T13:59:10;20.60;47.30
76789;DHT22;65740;52.464;13.446;2023-02-15T14:07:46;20.60;47.30
76789;DHT22;65740;52.464;13.446;2023-02-15T14:10:42;20.60;47.50
76789;DHT22;65740;52.464;13.446;2023-02-15T14:16:33;20.60;47.80
76789;DHT22;65740;52.464;13.446;2023-02-15T14:30:29;20.70;47.80
76789;DHT22;65740;52.464;13.446;2023-02-15T14:33:05;20.60;48.40
76789;DHT22;65740;52.464;13.446;2023-02-15T14:35:32;20.70;47.60
76789;DHT22;65740;52.464;13.446;2023-02-15T14:41:14;20.70;47.90
76789;DHT22;65740;52.464;13.446;2023-02-15T14:44:13;20.70;47.90
76789;DHT22;65740;52.464;13.446;2023-02-15T14:47:09;20.70;47.90
76789;DHT22;65740;52.464;13.446;2023-02-15T14:49:40;20.80;47.50
76789;DHT22;65740;52.464;13.446;2023-02-15T14:52:07;20.80;48.20
76789;DHT22;65740;52.464;13.446;2023-02-15T15:07:53;20.90;47.60
76789;DHT22;65740;52.464;13.446;2023-02-15T15:12:56;20.90;48.20
76789;DHT22;65740;52.464;13.446;2023-02-15T15:18:08;20.90;48.40
76789;DHT22;65740;52.464;13.446;2023-02-15T15:49:15;21.00;49.10
76789;DHT22;65740;52.464;13.446;2023-02-15T15:51:42;21.00;49.10
76789;DHT22;65740;52.464;13.446;2023-02-15T15:54:15;21.00;49.10
76789;DHT22;65740;52.464;13.446;2023-02-15T15:56:44;21.00;49.00
76789;DHT22;65740;52.464;13.446;2023-02-15T15:59:22;21.00;49.10
76789;DHT22;65740;52.464;13.446;2023-02-15T16:01:49;21.00;48.80
76789;DHT22;65740;52.464;13.446;2023-02-15T16:04:35;21.00;48.90
76789;DHT22;65740;52.464;13.446;2023-02-15T16:10:07;21.00;49.20
76789;DHT22;65740;52.464;13.446;2023-02-15T16:12:35;21.00;49.40
76789;DHT22;65740;52.464;13.446;2023-02-15T16:15:54;21.10;49.10
76789;DHT22;65740;52.464;13.446;2023-02-15T16:18:16;21.10;49.30
76789;DHT22;65740;52.464;13.446;2023-02-15T16:20:58;21.10;49.20
76789;DHT22;65740;52.464;13.446;2023-02-15T16:28:51;21.10;49.30
76789;DHT22;65740;52.464;13.446;2023-02-15T16:31:18;21.10;49.50
76789;DHT22;65740;52.464;13.446;2023-02-15T16:33:45;21.10;49.30
76789;DHT22;65740;52.464;13.446;2023-02-15T16:36:28;21.10;49.30
76789;DHT22;65740;52.464;13.446;2023-02-15T16:41:26;21.10;49.20
76789;DHT22;65740;52.464;13.446;2023-02-15T16:43:54;21.10;49.20
76789;DHT22;65740;52.464;13.446;2023-02-15T16:46:36;21.10;49.20
76789;DHT22;65740;52.464;13.446;2023-02-15T16:49:21;21.10;49.10
76789;DHT22;65740;52.464;13.446;2023-02-15T16:52:05;21.10;49.10
76789;DHT22;65740;52.464;13.446;2023-02-15T16:54:33;21.10;49.20
76789;DHT22;65740;52.464;13.446;2023-02-15T16:56:59;21.10;49.10
76789;DHT22;65740;52.464;13.446;2023-02-15T16:59:47;21.10;49.00
76789;DHT22;65740;52.464;13.446;2023-02-15T17:02:25;21.10;49.30
76789;DHT22;65740;52.464;13.446;2023-02-15T17:07:40;21.10;49.20
76789;DHT22;65740;52.464;13.446;2023-02-15T17:10:27;21.10;49.30
76789;DHT22;65740;52.464;13.446;2023-02-15T17:12:54;21.10;49.00
76789;DHT22;65740;52.464;13.446;2023-02-15T17:20:31;21.10;49.10
76789;DHT22;65740;52.464;13.446;2023-02-15T17:22:57;21.10;48.80
76789;DHT22;65740;52.464;13.446;2023-02-15T17:25:35;21.10;49.00
76789;DHT22;65740;52.464;13.446;2023-02-15T17:28:02;21.10;48.80
76789;DHT22;65740;52.464;13.446;2023-02-15T17:30:31;21.10;48.90
76789;DHT22;65740;52.464;13.446;2023-02-15T17:33:02;21.10;49.00
76789;DHT22;65740;52.464;13.446;2023-02-15T17:35:30;21.10;48.80
76789;DHT22;65740;52.464;13.446;2023-02-15T17:38:19;21.10;48.80
76789;DHT22;65740;52.464;13.446;2023-02-15T17:40:45;21.00;48.80
76789;DHT22;65740;52.464;13.446;2023-02-15T17:43:10;21.00;48.80
76789;DHT22;65740;52.464;13.446;2023-02-15T17:45:44;21.00;48.70
76789;DHT22;65740;52.464;13.446;2023-02-15T17:48:23;21.00;48.70
76789;DHT22;65740;52.464;13.446;2023-02-15T17:50:49;21.00;48.70
76789;DHT22;65740;52.464;13.446;2023-02-15T17:53:17;21.00;48.60
76789;DHT22;65740;52.464;13.446;2023-02-15T17:55:43;21.00;48.60
76789;DHT22;65740;52.464;13.446;2023-02-15T17:58:17;20.90;48.40
76789;DHT22;65740;52.464;13.446;2023-02-15T18:00:57;20.90;48.40
76789;DHT22;65740;52.464;13.446;2023-02-15T18:03:51;20.90;48.30
76789;DHT22;65740;52.464;13.446;2023-02-15T18:06:37;21.00;48.40
76789;DHT22;65740;52.464;13.446;2023-02-15T18:09:23;20.90;48.20
76789;DHT22;65740;52.464;13.446;2023-02-15T18:12:25;20.90;48.10
76789;DHT22;65740;52.464;13.446;2023-02-15T18:14:53;20.90;48.70
76789;DHT22;65740;52.464;13.446;2023-02-15T18:17:23;20.80;48.00
76789;DHT22;65740;52.464;13.446;2023-02-15T18:19:51;20.90;48.10
76789;DHT22;65740;52.464;13.446;2023-02-15T18:22:18;20.80;47.90
76789;DHT22;65740;52.464;13.446;2023-02-15T18:24:45;20.80;47.80
76789;DHT22;65740;52.464;13.446;2023-02-15T18:27:12;20.80;47.80
76789;DHT22;65740;52.464;13.446;2023-02-15T18:29:38;20.80;47.70
76789;DHT22;65740;52.464;13.446;2023-02-15T18:32:07;20.80;47.70
76789;DHT22;65740;52.464;13.446;2023-02-15T18:34:38;20.80;47.60
76789;DHT22;65740;52.464;13.446;2023-02-15T18:37:05;20.80;47.40
76789;DHT22;65740;52.464;13.446;2023-02-15T18:39:37;20.80;47.40
76789;DHT22;65740;52.464;13.446;2023-02-15T18:42:05;20.80;47.40
76789;DHT22;65740;52.464;13.446;2023-02-15T18:44:31;20.80;47.40
76789;DHT22;65740;52.464;13.446;2023-02-15T18:46:56;20.80;47.40
76789;DHT22;65740;52.464;13.446;2023-02-15T18:49:22;20.80;47.40
76789;DHT22;65740;52.464;13.446;2023-02-15T18:51:48;20.80;47.40
76789;DHT22;65740;52.464;13.446;2023-02-15T18:54:19;20.70;47.30
76789;DHT22;65740;52.464;13.446;2023-02-15T18:56:56;20.80;47.40
76789;DHT22;65740;52.464;13.446;2023-02-15T18:59:24;20.70;47.30
76789;DHT22;65740;52.464;13.446;2023-02-15T19:01:50;20.70;47.30
76789;DHT22;65740;52.464;13.446;2023-02-15T19:04:16;20.70;47.30
76789;DHT22;65740;52.464;13.446;2023-02-15T19:06:47;20.60;47.20
76789;DHT22;65740;52.464;13.446;2023-02-15T19:09:16;20.60;47.20